CYZY

Details ICAO CYZY (YZY)
Name MACKENZIE
Region Canada
Timezone America/Vancouver (UTC-7.0)
Plans Departing 12
Arriving 11
Stats Elevation 2,264 ft / 690 m (AMSL)
Location 55.304305° -123.132085°
Runways 1
Magnetic Variation 17.746° E
Sunrise 2018-05-23 11:51:27 UTC / 2018-05-23 04:51:27 Local
Sunset 2018-05-24 04:30:02 UTC / 2018-05-23 21:30:02 Local
Advertisement - Login to hide

Runways

ID Width Length Bearing (true) Bearing (mag) Surface Threshold Offset Overrun Length
16 100 ft / 30 m 4,994 ft / 1,522 m 185.95° 168.20° Asphalt 0 ft / 0 m 0 ft / 0 m
34 100 ft / 30 m 4,994 ft / 1,522 m 5.95° 348.20° Asphalt 0 ft / 0 m 0 ft / 0 m

Map

Weather


0- 5 10 15 20 25 30 35+ Temperature / ° C

Clouds and Precipitation
Forecast for 2018-05-23 12:00 UTC. Updated 2 hours ago

Ground ~20,000 ft ~40,000 ft Winds

METAR

CYZY 231200Z AUTO 00000KT 9SM CLR 09/07 A2985 RMK SLP116

TAF

TAF CYZY 230638Z 2307/2309 34005KT P6SM SCT100 BKN180 RMK FCST BASED ON AUTO OBS. NXT FCST WILL BE ISSUED AT 231445Z
Warning: Do not use this data for real-world aviation or navigation. No guarantee of current accuracy is given.